createdAt,value
2018-11-29T00:01:14.218Z,1.70
2018-11-29T00:03:18.215Z,1.70
2018-11-29T00:05:22.067Z,1.70
2018-11-29T00:07:25.562Z,1.70
2018-11-29T00:09:33.066Z,1.70
2018-11-29T00:11:36.624Z,1.70
2018-11-29T00:13:40.542Z,1.70
2018-11-29T00:15:44.062Z,1.70
2018-11-29T00:17:47.958Z,1.70
2018-11-29T00:19:51.190Z,1.70
2018-11-29T00:21:54.734Z,1.70
2018-11-29T00:23:58.266Z,1.70
2018-11-29T00:26:01.846Z,1.70
2018-11-29T00:28:06.246Z,1.70
2018-11-29T00:30:13.846Z,1.70
2018-11-29T00:32:17.398Z,1.60
2018-11-29T00:34:20.883Z,1.60
2018-11-29T00:36:24.377Z,1.60
2018-11-29T00:38:27.887Z,1.60
2018-11-29T00:40:31.356Z,1.50
2018-11-29T00:42:34.842Z,1.60
2018-11-29T00:44:38.574Z,1.50
2018-11-29T00:46:42.151Z,1.50
2018-11-29T00:48:45.362Z,1.50
2018-11-29T00:50:48.610Z,1.50
2018-11-29T00:52:52.175Z,1.50
2018-11-29T00:54:55.642Z,1.50
2018-11-29T00:56:59.345Z,1.50
2018-11-29T00:59:02.551Z,1.50
2018-11-29T01:01:06.515Z,1.50
2018-11-29T01:03:10.293Z,1.50
2018-11-29T01:05:14.103Z,1.50
2018-11-29T01:07:17.660Z,1.50
2018-11-29T01:09:20.902Z,1.50
2018-11-29T01:11:24.428Z,1.50
2018-11-29T01:13:27.930Z,1.50
2018-11-29T01:15:31.778Z,1.50
2018-11-29T01:17:35.036Z,1.50
2018-11-29T01:19:38.689Z,1.50
2018-11-29T01:21:42.214Z,1.50
2018-11-29T01:23:45.682Z,1.50
2018-11-29T01:25:49.163Z,1.40
2018-11-29T01:27:53.189Z,1.50
2018-11-29T01:29:56.682Z,1.50
2018-11-29T01:32:00.225Z,1.50
2018-11-29T01:34:04.074Z,1.50
2018-11-29T01:36:07.670Z,1.50
2018-11-29T01:38:11.138Z,1.60
2018-11-29T01:40:18.974Z,1.50
2018-11-29T01:42:22.270Z,1.60
2018-11-29T01:44:25.487Z,1.60
2018-11-29T01:46:29.075Z,1.50
2018-11-29T01:48:32.558Z,1.50
2018-11-29T01:50:36.394Z,1.60
2018-11-29T01:52:39.633Z,1.60
2018-11-29T01:54:43.115Z,1.60
2018-11-29T01:56:46.604Z,1.60
2018-11-29T01:58:50.034Z,1.60
2018-11-29T02:00:53.509Z,1.60
2018-11-29T02:02:56.874Z,1.60
2018-11-29T02:05:00.350Z,1.60
2018-11-29T02:07:03.863Z,1.60
2018-11-29T02:09:08.804Z,1.60
2018-11-29T02:11:12.560Z,1.60
2018-11-29T02:13:16.026Z,1.60
2018-11-29T02:15:19.786Z,1.60
2018-11-29T02:17:23.245Z,1.70
2018-11-29T02:19:26.918Z,1.70
2018-11-29T02:21:30.233Z,1.60
2018-11-29T02:23:33.438Z,1.60
2018-11-29T02:25:37.592Z,1.60
2018-11-29T02:27:41.513Z,1.60
2018-11-29T02:29:45.318Z,1.60
2018-11-29T02:31:48.819Z,1.60
2018-11-29T02:33:52.299Z,1.60
2018-11-29T02:35:56.137Z,1.60
2018-11-29T02:37:59.617Z,1.70
2018-11-29T02:40:02.853Z,1.70
2018-11-29T02:42:06.925Z,1.70
2018-11-29T02:44:10.756Z,1.70
2018-11-29T02:46:13.982Z,1.70
2018-11-29T02:48:17.471Z,1.70
2018-11-29T02:50:20.986Z,1.70
2018-11-29T02:52:24.783Z,1.70
2018-11-29T02:54:28.158Z,1.70
2018-11-29T02:56:32.049Z,1.60
2018-11-29T02:58:35.719Z,1.70
2018-11-29T03:00:39.170Z,1.80
2018-11-29T03:02:42.722Z,1.70
2018-11-29T03:04:46.339Z,1.80
2018-11-29T03:06:49.841Z,1.80
2018-11-29T03:08:53.310Z,1.80
2018-11-29T03:10:56.546Z,1.80
2018-11-29T03:13:00.525Z,1.70
2018-11-29T03:15:04.402Z,1.70
2018-11-29T03:17:07.630Z,1.70
2018-11-29T03:19:10.820Z,1.70
2018-11-29T03:21:14.294Z,1.80
2018-11-29T03:23:17.801Z,1.70
2018-11-29T03:25:21.506Z,1.70
2018-11-29T03:27:24.965Z,1.60
2018-11-29T03:29:28.882Z,1.60
2018-11-29T03:31:32.447Z,1.60
2018-11-29T03:33:35.936Z,1.60
2018-11-29T03:35:44.308Z,1.50
2018-11-29T03:37:43.097Z,1.50
2018-11-29T03:39:46.403Z,1.50
2018-11-29T03:41:49.891Z,1.50
2018-11-29T03:43:53.734Z,1.60
2018-11-29T03:45:57.207Z,1.60
2018-11-29T03:48:00.438Z,1.60
2018-11-29T03:50:05.511Z,1.60
2018-11-29T03:52:09.050Z,1.70
2018-11-29T03:54:12.616Z,1.70
2018-11-29T03:56:16.351Z,1.70
2018-11-29T03:58:19.593Z,1.70
2018-11-29T04:00:23.190Z,1.70
2018-11-29T04:02:26.647Z,1.70
2018-11-29T04:04:29.837Z,1.80
2018-11-29T04:06:33.373Z,1.80
2018-11-29T04:08:36.861Z,1.80
2018-11-29T04:10:41.211Z,1.80
2018-11-29T04:12:44.632Z,1.80
2018-11-29T04:14:48.042Z,1.80
2018-11-29T04:16:51.850Z,1.80
2018-11-29T04:18:55.619Z,1.90
2018-11-29T04:20:59.497Z,1.90
2018-11-29T04:23:02.947Z,1.90
2018-11-29T04:25:07.614Z,1.80
2018-11-29T04:27:11.319Z,1.80
2018-11-29T04:29:15.464Z,1.80
2018-11-29T04:31:18.956Z,1.70
2018-11-29T04:33:22.346Z,1.60
2018-11-29T04:35:25.857Z,1.60
2018-11-29T04:37:29.699Z,1.50
2018-11-29T04:39:33.220Z,1.50
2018-11-29T04:41:36.958Z,1.50
2018-11-29T04:43:40.448Z,1.50
2018-11-29T04:46:52.230Z,1.50
2018-11-29T04:48:55.567Z,1.50
2018-11-29T04:50:58.882Z,1.50
2018-11-29T04:53:02.420Z,1.40
2018-11-29T04:55:06.304Z,1.40
2018-11-29T04:57:09.866Z,1.40
2018-11-29T04:59:13.375Z,1.40
2018-11-29T05:01:16.895Z,1.40
2018-11-29T05:03:20.571Z,1.40
2018-11-29T05:05:24.047Z,1.40
2018-11-29T05:07:27.731Z,1.30
2018-11-29T05:09:31.017Z,1.30
2018-11-29T05:11:34.495Z,1.30
2018-11-29T05:13:38.290Z,1.30
2018-11-29T05:15:42.042Z,1.20
2018-11-29T05:17:45.286Z,1.20
2018-11-29T05:19:49.502Z,1.30
2018-11-29T05:21:53.444Z,1.30
2018-11-29T05:23:57.077Z,1.30
2018-11-29T05:26:00.274Z,1.30
2018-11-29T05:28:03.792Z,1.30
2018-11-29T05:30:11.720Z,1.30
2018-11-29T05:32:14.939Z,1.30
2018-11-29T05:34:18.551Z,1.30
2018-11-29T05:36:22.210Z,1.30
2018-11-29T05:38:25.751Z,1.40
2018-11-29T05:40:29.656Z,1.40
2018-11-29T05:42:33.171Z,1.40
2018-11-29T05:44:36.359Z,1.30
2018-11-29T05:46:39.630Z,1.30
2018-11-29T05:48:43.165Z,1.30
2018-11-29T05:50:46.836Z,1.30
2018-11-29T05:52:51.863Z,1.30
2018-11-29T05:54:55.441Z,1.30
2018-11-29T05:56:58.885Z,1.30
2018-11-29T05:59:02.807Z,1.30
2018-11-29T06:01:14.142Z,1.30
2018-11-29T06:03:17.625Z,1.20
2018-11-29T06:05:21.068Z,1.20
2018-11-29T06:07:25.022Z,1.20
2018-11-29T06:09:28.564Z,1.30
2018-11-29T06:11:32.398Z,1.30
2018-11-29T06:13:35.870Z,1.30
2018-11-29T06:15:39.285Z,1.30
2018-11-29T06:17:43.414Z,1.30
2018-11-29T06:19:47.042Z,1.30
2018-11-29T06:21:50.262Z,1.40
2018-11-29T06:23:54.022Z,1.40
2018-11-29T06:25:57.245Z,1.40
2018-11-29T06:28:00.722Z,1.30
2018-11-29T06:30:06.601Z,1.30
2018-11-29T06:32:10.494Z,1.40
2018-11-29T06:34:14.031Z,1.30
2018-11-29T06:36:17.644Z,1.40
2018-11-29T06:38:21.154Z,1.40
2018-11-29T06:40:25.030Z,1.40
2018-11-29T06:42:28.586Z,1.30
2018-11-29T06:44:32.108Z,1.30
2018-11-29T06:46:36.657Z,1.30
2018-11-29T06:48:40.133Z,1.30
2018-11-29T06:50:43.584Z,1.30
2018-11-29T06:52:48.294Z,1.30
2018-11-29T06:54:51.810Z,1.30
2018-11-29T06:56:55.776Z,1.30
2018-11-29T06:58:59.922Z,1.30
2018-11-29T07:01:03.422Z,1.40
2018-11-29T07:03:07.256Z,1.50
2018-11-29T07:05:10.799Z,1.60
2018-11-29T07:07:14.019Z,1.60
2018-11-29T07:09:17.545Z,1.50
2018-11-29T07:11:21.358Z,1.50
2018-11-29T07:13:25.193Z,1.50
2018-11-29T07:15:28.704Z,1.60
2018-11-29T07:17:32.406Z,1.50
2018-11-29T07:19:35.873Z,1.60
2018-11-29T07:21:50.893Z,1.60
2018-11-29T07:23:54.318Z,1.60
2018-11-29T07:25:58.155Z,1.70
2018-11-29T07:28:01.520Z,1.70
2018-11-29T07:30:08.252Z,1.70
2018-11-29T07:32:13.323Z,1.80
2018-11-29T07:34:16.778Z,1.80
2018-11-29T07:36:20.270Z,1.80
2018-11-29T07:38:23.794Z,1.80
2018-11-29T07:40:27.304Z,1.80
2018-11-29T07:42:30.577Z,1.80
2018-11-29T07:44:34.466Z,1.90
2018-11-29T07:46:38.466Z,1.90
2018-11-29T07:48:41.922Z,1.90
2018-11-29T07:50:45.730Z,1.90
2018-11-29T07:52:49.329Z,2.00
2018-11-29T07:54:52.957Z,2.00
2018-11-29T07:56:56.465Z,2.00
2018-11-29T07:59:00.222Z,2.00
2018-11-29T08:01:03.716Z,2.00
2018-11-29T08:03:07.854Z,2.00
2018-11-29T08:05:12.390Z,2.00
2018-11-29T08:07:15.822Z,2.00
2018-11-29T08:09:19.618Z,2.00
2018-11-29T08:11:23.088Z,2.00
2018-11-29T08:13:26.290Z,2.00
2018-11-29T08:15:30.070Z,2.00
2018-11-29T08:17:33.568Z,2.00
2018-11-29T08:19:37.047Z,2.00
2018-11-29T08:21:40.528Z,2.00
2018-11-29T08:23:43.753Z,2.00
2018-11-29T08:25:47.262Z,2.00
2018-11-29T08:27:50.796Z,2.00
2018-11-29T08:29:54.615Z,2.00
2018-11-29T08:31:57.807Z,2.10
2018-11-29T08:34:01.038Z,2.00
2018-11-29T08:36:05.219Z,2.00
2018-11-29T08:38:08.782Z,2.00
2018-11-29T08:40:13.551Z,2.10
2018-11-29T08:42:17.210Z,2.10
2018-11-29T08:44:20.810Z,2.10
2018-11-29T08:46:24.313Z,2.10
2018-11-29T08:48:28.124Z,2.10
2018-11-29T08:50:31.392Z,2.10
2018-11-29T08:52:34.910Z,2.10
2018-11-29T08:54:38.814Z,2.20
2018-11-29T08:56:42.736Z,2.20
2018-11-29T08:58:46.232Z,2.20
2018-11-29T09:00:49.817Z,2.20
2018-11-29T09:02:53.378Z,2.20
2018-11-29T09:04:57.658Z,2.10
2018-11-29T09:07:01.216Z,2.20
2018-11-29T09:09:07.374Z,2.30
2018-11-29T09:11:11.215Z,2.30
2018-11-29T09:13:15.349Z,2.30
2018-11-29T09:15:19.265Z,2.30
2018-11-29T09:17:22.768Z,2.30
2018-11-29T09:19:26.011Z,2.30
2018-11-29T09:21:29.560Z,2.40
2018-11-29T09:23:33.034Z,2.30
2018-11-29T09:25:36.799Z,2.40
2018-11-29T09:27:40.014Z,2.30
2018-11-29T09:29:43.229Z,2.30
2018-11-29T09:31:47.217Z,2.40
2018-11-29T09:33:51.202Z,2.40
2018-11-29T09:35:54.663Z,2.50
2018-11-29T09:37:58.648Z,2.50
2018-11-29T09:40:02.502Z,2.50
2018-11-29T09:42:06.222Z,2.50
2018-11-29T09:44:09.422Z,2.50
2018-11-29T09:46:12.972Z,2.60
2018-11-29T09:48:16.514Z,2.70
2018-11-29T09:50:20.238Z,2.70
2018-11-29T09:52:23.698Z,2.70
2018-11-29T09:54:26.920Z,2.70
2018-11-29T09:56:30.593Z,2.70
2018-11-29T09:58:33.876Z,2.80
2018-11-29T10:00:37.434Z,2.80
2018-11-29T10:02:41.276Z,2.80
2018-11-29T10:04:44.791Z,2.80
2018-11-29T10:06:48.282Z,2.80
2018-11-29T10:08:52.182Z,2.80
2018-11-29T10:10:55.359Z,2.90
2018-11-29T10:13:00.523Z,2.90
2018-11-29T10:15:04.692Z,2.80
2018-11-29T10:17:08.206Z,2.80
2018-11-29T10:19:11.491Z,2.90
2018-11-29T10:21:15.222Z,2.80
2018-11-29T10:23:18.744Z,2.90
2018-11-29T10:25:22.378Z,2.80
2018-11-29T10:27:26.015Z,2.80
2018-11-29T10:29:29.574Z,2.80
2018-11-29T10:31:33.581Z,2.80
2018-11-29T10:33:37.309Z,2.80
2018-11-29T10:35:40.778Z,2.90
2018-11-29T10:37:43.962Z,2.90
2018-11-29T10:39:48.410Z,2.90
2018-11-29T10:41:51.932Z,2.90
2018-11-29T10:43:55.157Z,2.90
2018-11-29T10:45:58.696Z,2.90
2018-11-29T10:48:02.684Z,3.00
2018-11-29T10:50:10.620Z,3.00
2018-11-29T10:52:14.170Z,3.00
2018-11-29T10:54:18.145Z,3.00
2018-11-29T10:56:21.666Z,3.00
2018-11-29T10:58:26.398Z,3.00
2018-11-29T11:00:34.041Z,3.10
2018-11-29T11:02:41.791Z,3.00
2018-11-29T11:04:45.291Z,3.00
2018-11-29T11:06:48.805Z,3.00
2018-11-29T11:08:52.729Z,3.00
2018-11-29T11:10:56.565Z,3.10
2018-11-29T11:13:00.096Z,3.00
2018-11-29T11:15:03.838Z,3.00
2018-11-29T11:17:07.860Z,3.10
2018-11-29T11:19:11.696Z,3.10
2018-11-29T11:21:15.363Z,3.10
2018-11-29T11:23:18.605Z,3.10
2018-11-29T11:25:21.860Z,3.20
2018-11-29T11:27:25.355Z,3.20
2018-11-29T11:29:28.834Z,3.20
2018-11-29T11:31:32.624Z,3.30
2018-11-29T11:33:36.470Z,3.30
2018-11-29T11:35:40.207Z,3.40
2018-11-29T11:37:43.676Z,3.30
2018-11-29T11:39:47.482Z,3.30
2018-11-29T11:41:50.971Z,3.30
2018-11-29T11:43:55.204Z,3.30
2018-11-29T11:45:58.378Z,3.30
2018-11-29T11:48:03.472Z,3.30
2018-11-29T11:50:10.947Z,3.30
2018-11-29T11:52:14.650Z,3.30
2018-11-29T11:54:18.318Z,3.30
2018-11-29T11:56:21.908Z,3.30
2018-11-29T11:58:25.567Z,3.30
2018-11-29T12:00:30.302Z,3.30
2018-11-29T12:02:33.792Z,3.30
2018-11-29T12:04:36.966Z,3.30
2018-11-29T12:06:40.230Z,3.30
2018-11-29T12:08:43.734Z,3.30
2018-11-29T12:10:47.248Z,3.30
2018-11-29T12:12:50.875Z,3.30
2018-11-29T12:14:54.415Z,3.20
2018-11-29T12:16:57.639Z,3.30
2018-11-29T12:19:02.347Z,3.30
2018-11-29T12:21:04.723Z,3.30
2018-11-29T12:23:08.729Z,3.30
2018-11-29T12:25:13.894Z,3.30
2018-11-29T12:27:17.616Z,3.30
2018-11-29T12:29:20.844Z,3.30
2018-11-29T12:31:25.138Z,3.30
2018-11-29T12:33:27.788Z,3.30
2018-11-29T12:35:31.287Z,3.30
2018-11-29T12:37:34.822Z,3.30
2018-11-29T12:39:38.864Z,3.30
2018-11-29T12:41:42.876Z,3.30
2018-11-29T12:43:49.193Z,3.40
2018-11-29T12:45:52.765Z,3.30
2018-11-29T12:47:57.149Z,3.40
2018-11-29T12:50:00.994Z,3.40
2018-11-29T12:52:04.941Z,3.50
2018-11-29T12:54:08.395Z,3.50
2018-11-29T12:56:12.991Z,3.50
2018-11-29T12:58:16.474Z,3.50
2018-11-29T13:00:21.673Z,3.50
2018-11-29T13:02:24.880Z,3.60
2018-11-29T13:04:28.415Z,3.60
2018-11-29T13:06:31.993Z,3.60
2018-11-29T13:08:35.786Z,3.60
2018-11-29T13:10:39.033Z,3.60
2018-11-29T13:12:44.046Z,3.60
2018-11-29T13:14:47.636Z,3.60
2018-11-29T13:16:51.255Z,3.70
2018-11-29T13:18:54.822Z,3.60
2018-11-29T13:21:02.160Z,3.70
2018-11-29T13:23:07.126Z,3.70
2018-11-29T13:25:15.059Z,3.70
2018-11-29T13:27:18.370Z,3.70
2018-11-29T13:29:21.572Z,3.70
2018-11-29T13:31:25.037Z,3.80
2018-11-29T13:33:28.503Z,3.80
2018-11-29T13:35:35.476Z,3.80
2018-11-29T13:37:38.710Z,3.80
2018-11-29T13:39:48.696Z,3.80
2018-11-29T13:41:52.057Z,3.80
2018-11-29T13:43:55.501Z,3.80
2018-11-29T13:45:59.038Z,3.80
2018-11-29T13:48:02.566Z,3.80
2018-11-29T13:50:09.242Z,3.80
2018-11-29T13:52:12.858Z,3.80
2018-11-29T13:54:16.810Z,3.80
2018-11-29T13:56:20.367Z,3.80
2018-11-29T13:58:23.837Z,3.70
2018-11-29T14:00:27.308Z,3.70
2018-11-29T14:02:31.164Z,3.70
2018-11-29T14:04:34.664Z,3.70
2018-11-29T14:06:38.273Z,3.80
2018-11-29T14:08:42.052Z,3.80
2018-11-29T14:10:45.639Z,3.80
2018-11-29T14:12:50.069Z,3.80
2018-11-29T14:14:54.318Z,3.80
2018-11-29T14:16:57.787Z,3.80
2018-11-29T14:19:01.639Z,3.80
2018-11-29T14:21:05.694Z,3.80
2018-11-29T14:23:09.553Z,3.80
2018-11-29T14:25:14.103Z,3.80
2018-11-29T14:27:17.469Z,3.80
2018-11-29T14:29:21.084Z,3.80
2018-11-29T14:31:24.423Z,3.80
2018-11-29T14:33:28.052Z,3.80
2018-11-29T14:35:31.593Z,3.80
2018-11-29T14:37:35.152Z,3.80
2018-11-29T14:39:39.486Z,3.80
2018-11-29T14:41:42.708Z,3.80
2018-11-29T14:43:46.232Z,3.80
2018-11-29T14:45:49.715Z,3.80
2018-11-29T14:47:53.267Z,3.80
2018-11-29T14:49:56.793Z,3.90
2018-11-29T14:52:00.099Z,3.80
2018-11-29T14:54:03.905Z,3.80
2018-11-29T14:56:07.168Z,3.80
2018-11-29T14:58:19.631Z,3.80
2018-11-29T15:00:19.294Z,3.80
2018-11-29T15:02:28.104Z,3.80
2018-11-29T15:04:34.389Z,3.80
2018-11-29T15:06:38.550Z,3.80
2018-11-29T15:08:42.343Z,3.80
2018-11-29T15:10:45.685Z,3.80
2018-11-29T15:12:49.715Z,3.80
2018-11-29T15:14:53.241Z,3.80
2018-11-29T15:16:56.759Z,3.80
2018-11-29T15:19:00.276Z,3.80
2018-11-29T15:21:04.590Z,3.80
2018-11-29T15:23:09.175Z,3.80
2018-11-29T15:25:12.926Z,3.80
2018-11-29T15:29:31.625Z,3.90
2018-11-29T15:31:35.134Z,3.90
2018-11-29T15:33:38.740Z,3.80
2018-11-29T15:35:42.615Z,3.90
2018-11-29T15:37:46.466Z,3.90
2018-11-29T15:39:50.135Z,3.90
2018-11-29T15:41:53.355Z,3.90
2018-11-29T15:43:56.842Z,3.90
2018-11-29T15:46:00.313Z,3.90
2018-11-29T15:48:03.625Z,4.00
2018-11-29T15:50:10.410Z,4.00
2018-11-29T15:52:13.727Z,4.00
2018-11-29T15:54:17.294Z,4.00
2018-11-29T15:56:20.590Z,4.10
2018-11-29T15:58:23.818Z,4.10
2018-11-29T16:00:28.671Z,4.10
2018-11-29T16:02:32.247Z,4.10
2018-11-29T16:04:35.876Z,4.10
2018-11-29T16:06:39.398Z,4.10
2018-11-29T16:08:42.904Z,4.10
2018-11-29T16:10:46.284Z,4.10
2018-11-29T16:12:49.878Z,4.20
2018-11-29T16:14:53.099Z,4.20
2018-11-29T16:16:56.343Z,4.20
2018-11-29T16:19:03.831Z,4.20
2018-11-29T16:21:03.889Z,4.20
2018-11-29T16:23:09.126Z,4.20
2018-11-29T16:25:13.014Z,4.20
2018-11-29T16:27:16.514Z,4.20
2018-11-29T16:29:20.035Z,4.20
2018-11-29T16:31:23.628Z,4.30
2018-11-29T16:33:31.978Z,4.30
2018-11-29T16:35:35.478Z,4.30
2018-11-29T16:37:38.670Z,4.30
2018-11-29T16:39:41.943Z,4.30
2018-11-29T16:41:45.450Z,4.30
2018-11-29T16:43:48.986Z,4.30
2018-11-29T16:45:52.479Z,4.30
2018-11-29T16:47:55.980Z,4.40
2018-11-29T16:49:59.530Z,4.30
2018-11-29T16:52:03.066Z,4.40
2018-11-29T16:54:06.630Z,4.40
2018-11-29T16:56:10.526Z,4.40
2018-11-29T16:58:17.722Z,4.40
2018-11-29T17:00:22.405Z,4.40
2018-11-29T17:02:26.852Z,4.50
2018-11-29T17:04:30.358Z,4.40
2018-11-29T17:06:33.658Z,4.50
2018-11-29T17:08:39.194Z,4.60
2018-11-29T17:10:42.747Z,5.00
2018-11-29T17:12:48.658Z,5.40
2018-11-29T17:14:53.168Z,5.30
2018-11-29T17:16:56.682Z,5.20
2018-11-29T17:19:00.012Z,5.30
2018-11-29T17:21:03.814Z,4.90
2018-11-29T17:23:08.350Z,4.70
2018-11-29T17:25:13.225Z,4.60
2018-11-29T17:27:16.810Z,4.60
2018-11-29T17:29:20.310Z,4.50
2018-11-29T17:31:23.808Z,4.60
2018-11-29T17:33:27.491Z,4.60
2018-11-29T17:35:31.055Z,4.60
2018-11-29T17:37:34.559Z,4.50
2018-11-29T17:39:38.190Z,4.50
2018-11-29T17:41:41.987Z,4.50
2018-11-29T17:43:45.552Z,4.50
2018-11-29T17:45:49.293Z,4.50
2018-11-29T17:47:58.098Z,4.50
2018-11-29T17:50:01.791Z,4.60
2018-11-29T17:52:05.573Z,4.50
2018-11-29T17:54:09.387Z,4.60
2018-11-29T17:56:13.015Z,4.60
2018-11-29T17:58:16.510Z,4.50
2018-11-29T18:00:21.534Z,4.60
2018-11-29T18:02:25.069Z,4.60
2018-11-29T18:04:28.528Z,4.60
2018-11-29T18:06:32.333Z,4.60
2018-11-29T18:08:35.596Z,4.60
2018-11-29T18:10:40.040Z,4.60
2018-11-29T18:12:44.464Z,4.60
2018-11-29T18:14:47.924Z,4.50
2018-11-29T18:16:51.495Z,4.50
2018-11-29T18:18:55.015Z,4.50
2018-11-29T18:20:58.505Z,4.50
2018-11-29T18:23:02.005Z,4.50
2018-11-29T18:25:07.431Z,4.40
2018-11-29T18:27:11.060Z,4.40
2018-11-29T18:29:14.364Z,4.40
2018-11-29T18:31:17.943Z,4.50
2018-11-29T18:33:21.427Z,4.40
2018-11-29T18:35:24.666Z,4.40
2018-11-29T18:37:28.186Z,4.40
2018-11-29T18:39:31.794Z,4.40
2018-11-29T18:41:35.354Z,4.40
2018-11-29T18:43:39.104Z,4.40
2018-11-29T18:45:42.587Z,4.40
2018-11-29T18:47:48.289Z,4.40
2018-11-29T18:49:51.160Z,4.50
2018-11-29T18:51:54.659Z,4.50
2018-11-29T18:53:58.541Z,4.50
2018-11-29T18:56:02.334Z,4.60
2018-11-29T18:58:06.878Z,4.60
2018-11-29T19:00:11.922Z,4.60
2018-11-29T19:02:15.483Z,4.60
2018-11-29T19:04:18.721Z,4.60
2018-11-29T19:06:22.246Z,4.60
2018-11-29T19:08:25.705Z,4.60
2018-11-29T19:10:28.926Z,4.60
2018-11-29T19:12:32.560Z,4.60
2018-11-29T19:14:36.004Z,4.60
2018-11-29T19:16:39.530Z,4.50
2018-11-29T19:18:43.232Z,4.50
2018-11-29T19:20:46.725Z,4.50
2018-11-29T19:22:50.201Z,4.50
2018-11-29T19:24:53.840Z,4.50
2018-11-29T19:26:57.359Z,4.50
2018-11-29T19:29:00.582Z,4.60
2018-11-29T19:31:04.951Z,4.50
2018-11-29T19:33:29.887Z,4.60
2018-11-29T19:35:33.437Z,4.60
2018-11-29T19:37:36.999Z,4.60
2018-11-29T19:39:40.551Z,4.60
2018-11-29T19:41:44.048Z,4.50
2018-11-29T19:43:47.806Z,4.60
2018-11-29T19:45:51.033Z,4.60
2018-11-29T19:47:54.313Z,4.60
2018-11-29T19:49:57.791Z,4.60
2018-11-29T19:52:01.340Z,4.70
2018-11-29T19:54:04.590Z,4.70
2018-11-29T19:56:08.193Z,4.70
2018-11-29T19:58:12.037Z,4.80
2018-11-29T20:00:16.072Z,4.90
2018-11-29T20:02:19.571Z,4.90
2018-11-29T20:04:22.766Z,5.00
2018-11-29T20:06:26.078Z,5.00
2018-11-29T20:08:29.618Z,5.00
2018-11-29T20:10:33.078Z,5.10
2018-11-29T20:12:36.858Z,5.00
2018-11-29T20:14:40.367Z,5.00
2018-11-29T20:16:43.543Z,5.10
2018-11-29T20:18:47.095Z,5.10
2018-11-29T20:20:51.157Z,5.20
2018-11-29T20:22:54.582Z,5.10
2018-11-29T20:24:57.881Z,5.20
2018-11-29T20:27:01.386Z,5.20
2018-11-29T20:29:04.894Z,5.30
2018-11-29T20:31:08.698Z,5.30
2018-11-29T20:33:12.248Z,5.30
2018-11-29T20:35:16.399Z,5.30
2018-11-29T20:37:19.882Z,5.30
2018-11-29T20:39:23.382Z,5.30
2018-11-29T20:41:26.679Z,5.20
2018-11-29T20:43:30.266Z,5.20
2018-11-29T20:45:40.770Z,5.20
2018-11-29T20:47:44.303Z,5.20
2018-11-29T20:49:47.770Z,5.20
2018-11-29T20:51:51.019Z,5.20
2018-11-29T20:53:54.631Z,5.10
2018-11-29T20:55:58.422Z,5.10
2018-11-29T20:58:01.909Z,5.10
2018-11-29T21:00:08.362Z,5.10
2018-11-29T21:02:11.554Z,5.10
2018-11-29T21:04:15.175Z,5.00
2018-11-29T21:06:18.774Z,5.00
2018-11-29T21:08:22.284Z,5.00
2018-11-29T21:10:26.403Z,5.00
2018-11-29T21:12:29.933Z,5.00
2018-11-29T21:14:33.411Z,5.00
2018-11-29T21:16:37.030Z,5.00
2018-11-29T21:18:41.066Z,5.00
2018-11-29T21:20:44.923Z,5.00
2018-11-29T21:22:49.596Z,5.00
2018-11-29T21:24:53.072Z,5.00
2018-11-29T21:26:56.615Z,5.00
2018-11-29T21:29:00.150Z,5.00
2018-11-29T21:31:03.674Z,5.00
2018-11-29T21:33:07.453Z,5.00
2018-11-29T21:35:13.466Z,5.00
2018-11-29T21:37:16.951Z,5.00
2018-11-29T21:39:20.160Z,5.00
2018-11-29T21:41:23.710Z,5.10
2018-11-29T21:43:27.418Z,5.10
2018-11-29T21:45:30.930Z,5.10
2018-11-29T21:47:34.574Z,5.10
2018-11-29T21:49:38.375Z,5.10
2018-11-29T21:51:41.721Z,5.10
2018-11-29T21:53:45.574Z,5.10
2018-11-29T21:55:48.903Z,5.10
2018-11-29T21:57:55.776Z,5.10
2018-11-29T21:59:59.331Z,5.20
2018-11-29T22:02:02.876Z,5.20
2018-11-29T22:04:06.338Z,5.10
2018-11-29T22:06:09.921Z,5.20
2018-11-29T22:08:13.442Z,5.20
2018-11-29T22:10:16.995Z,5.20
2018-11-29T22:12:20.847Z,5.20
2018-11-29T22:14:24.744Z,5.20
2018-11-29T22:16:28.524Z,5.20
2018-11-29T22:18:32.038Z,5.20
2018-11-29T22:20:35.642Z,5.20
2018-11-29T22:22:39.207Z,5.20
2018-11-29T22:24:42.702Z,5.20
2018-11-29T22:26:46.231Z,5.20
2018-11-29T22:28:49.979Z,5.20
2018-11-29T22:30:54.693Z,5.20
2018-11-29T22:32:58.846Z,5.20
2018-11-29T22:35:02.361Z,5.20
2018-11-29T22:37:06.083Z,5.10
2018-11-29T22:39:10.409Z,5.10
2018-11-29T22:41:15.302Z,5.10
2018-11-29T22:43:18.894Z,5.20
2018-11-29T22:45:22.110Z,5.20
2018-11-29T22:47:25.574Z,5.20
2018-11-29T22:49:29.062Z,5.20
2018-11-29T22:51:32.482Z,5.20
2018-11-29T22:53:36.076Z,5.20
2018-11-29T22:55:40.090Z,5.20
2018-11-29T22:57:43.566Z,5.20
2018-11-29T22:59:47.021Z,5.30
2018-11-29T23:01:50.662Z,5.30
2018-11-29T23:03:54.076Z,5.30
2018-11-29T23:05:57.755Z,5.40
2018-11-29T23:08:00.999Z,5.40
2018-11-29T23:10:05.503Z,5.40
2018-11-29T23:12:08.981Z,5.50
2018-11-29T23:14:12.154Z,5.40
2018-11-29T23:16:16.154Z,5.50
2018-11-29T23:18:19.601Z,5.50
2018-11-29T23:20:23.460Z,5.50
2018-11-29T23:22:27.283Z,5.50
2018-11-29T23:24:31.150Z,5.50
2018-11-29T23:26:34.955Z,5.50
2018-11-29T23:28:38.793Z,5.50
2018-11-29T23:30:42.377Z,5.50
2018-11-29T23:32:46.116Z,5.50
2018-11-29T23:34:49.554Z,5.60
2018-11-29T23:36:53.350Z,5.60
2018-11-29T23:38:56.583Z,5.60
2018-11-29T23:41:00.276Z,5.50
2018-11-29T23:43:04.126Z,5.50
2018-11-29T23:45:09.107Z,5.50
2018-11-29T23:47:12.877Z,5.50
2018-11-29T23:49:16.080Z,5.50
2018-11-29T23:51:19.658Z,5.50
2018-11-29T23:53:23.158Z,5.50
2018-11-29T23:55:26.371Z,5.50
2018-11-29T23:57:29.844Z,5.40
2018-11-29T23:59:33.831Z,5.50
